createdAt,value
2018-05-08T00:01:39.330Z,29.59
2018-05-08T00:04:10.985Z,29.61
2018-05-08T00:06:43.347Z,29.59
2018-05-08T00:09:14.821Z,29.56
2018-05-08T00:11:49.180Z,29.61
2018-05-08T00:14:20.668Z,29.60
2018-05-08T00:16:52.963Z,29.53
2018-05-08T00:19:24.841Z,29.55
2018-05-08T00:21:57.109Z,29.57
2018-05-08T00:24:35.904Z,29.54
2018-05-08T00:27:09.866Z,29.54
2018-05-08T00:29:42.116Z,29.51
2018-05-08T00:32:15.011Z,29.48
2018-05-08T00:34:47.314Z,29.47
2018-05-08T00:37:21.639Z,29.43
2018-05-08T00:39:53.315Z,29.43
2018-05-08T00:42:24.853Z,29.46
2018-05-08T00:44:58.871Z,29.54
2018-05-08T00:47:33.856Z,29.53
2018-05-08T00:50:11.916Z,29.52
2018-05-08T00:52:45.098Z,29.45
2018-05-08T00:55:17.211Z,29.48
2018-05-08T00:57:48.742Z,29.47
2018-05-08T01:00:21.967Z,29.36
2018-05-08T01:02:53.301Z,29.34
2018-05-08T01:05:26.495Z,29.22
2018-05-08T01:08:00.456Z,29.28
2018-05-08T01:10:34.332Z,29.25
2018-05-08T01:13:06.767Z,29.16
2018-05-08T01:15:43.478Z,29.21
2018-05-08T01:18:19.798Z,29.27
2018-05-08T01:20:53.815Z,29.25
2018-05-08T01:23:26.109Z,29.28
2018-05-08T01:26:04.838Z,29.24
2018-05-08T01:28:38.342Z,29.28
2018-05-08T01:31:09.784Z,29.13
2018-05-08T01:33:43.098Z,29.03
2018-05-08T01:36:15.757Z,29.04
2018-05-08T01:38:50.570Z,29.18
2018-05-08T01:41:24.593Z,29.18
2018-05-08T01:43:57.219Z,29.17
2018-05-08T01:46:28.698Z,29.22
2018-05-08T01:48:59.935Z,29.28
2018-05-08T01:51:34.288Z,29.29
2018-05-08T01:54:08.267Z,29.27
2018-05-08T01:56:40.579Z,29.26
2018-05-08T01:59:12.074Z,29.26
2018-05-08T02:01:46.631Z,29.24
2018-05-08T02:04:20.588Z,29.24
2018-05-08T02:06:53.040Z,29.17
2018-05-08T02:09:26.090Z,29.15
2018-05-08T02:11:58.128Z,29.13
2018-05-08T02:14:31.305Z,29.05
2018-05-08T02:17:03.591Z,29.03
2018-05-08T02:19:39.956Z,28.98
2018-05-08T02:22:14.371Z,28.89
2018-05-08T02:24:48.745Z,28.99
2018-05-08T02:27:22.667Z,29.01
2018-05-08T02:29:54.591Z,28.91
2018-05-08T02:32:26.071Z,28.80
2018-05-08T02:34:58.496Z,28.83
2018-05-08T02:37:33.303Z,28.79
2018-05-08T02:40:07.312Z,28.73
2018-05-08T02:42:40.531Z,28.66
2018-05-08T02:45:15.407Z,28.71
2018-05-08T02:47:49.451Z,28.79
2018-05-08T02:50:23.926Z,28.73
2018-05-08T02:52:57.266Z,28.76
2018-05-08T02:55:31.466Z,28.78
2018-05-08T02:58:05.199Z,28.84
2018-05-08T03:00:39.017Z,28.75
2018-05-08T03:03:12.327Z,28.66
2018-05-08T03:05:44.829Z,28.63
2018-05-08T03:08:17.878Z,28.69
2018-05-08T03:10:53.319Z,28.62
2018-05-08T03:13:27.291Z,28.59
2018-05-08T03:16:00.999Z,28.53
2018-05-08T03:18:33.510Z,28.49
2018-05-08T03:21:04.951Z,28.51
2018-05-08T03:23:38.165Z,28.46
2018-05-08T03:26:13.441Z,28.39
2018-05-08T03:28:45.833Z,28.41
2018-05-08T03:31:21.318Z,28.39
2018-05-08T03:33:54.606Z,28.33
2018-05-08T03:36:29.617Z,28.30
2018-05-08T03:39:03.704Z,28.31
2018-05-08T03:41:38.059Z,28.35
2018-05-08T03:44:10.354Z,28.26
2018-05-08T03:46:42.640Z,28.27
2018-05-08T03:49:14.874Z,28.28
2018-05-08T03:51:46.297Z,28.31
2018-05-08T03:54:18.841Z,28.38
2018-05-08T03:56:50.177Z,28.38
2018-05-08T03:59:21.305Z,28.37
2018-05-08T04:02:03.676Z,28.41
2018-05-08T04:05:52.054Z,28.44
2018-05-08T04:08:24.763Z,28.30
2018-05-08T04:10:56.987Z,28.35
2018-05-08T04:13:30.166Z,28.38
2018-05-08T04:16:02.398Z,28.39
2018-05-08T04:18:34.091Z,28.39
2018-05-08T04:21:07.332Z,28.57
2018-05-08T04:23:39.861Z,28.66
2018-05-08T04:26:12.151Z,28.83
2018-05-08T04:28:45.371Z,28.97
2018-05-08T04:31:17.785Z,29.12
2018-05-08T04:33:50.935Z,29.25
2018-05-08T04:36:24.090Z,29.39
2018-05-08T04:38:56.385Z,29.52
2018-05-08T04:41:28.666Z,29.69
2018-05-08T04:44:00.926Z,29.92
2018-05-08T04:46:33.254Z,30.11
2018-05-08T04:49:05.543Z,30.24
2018-05-08T04:51:37.959Z,30.22
2018-05-08T04:54:10.165Z,30.34
2018-05-08T04:56:43.121Z,30.38
2018-05-08T04:59:15.479Z,30.48
2018-05-08T05:01:49.428Z,30.56
2018-05-08T05:04:22.646Z,30.65
2018-05-08T05:06:54.941Z,30.86
2018-05-08T05:09:26.503Z,31.00
2018-05-08T05:12:00.479Z,31.15
2018-05-08T05:14:33.910Z,31.33
2018-05-08T05:17:07.309Z,31.56
2018-05-08T05:19:40.555Z,31.78
2018-05-08T05:22:14.315Z,31.98
2018-05-08T05:24:46.541Z,32.17
2018-05-08T05:27:19.039Z,32.26
2018-05-08T05:29:52.634Z,32.46
2018-05-08T05:32:26.025Z,32.63
2018-05-08T05:35:00.431Z,32.68
2018-05-08T05:37:32.775Z,32.80
2018-05-08T05:40:05.071Z,33.01
2018-05-08T05:42:38.341Z,33.22
2018-05-08T05:45:14.906Z,33.28
2018-05-08T05:47:47.193Z,33.48
2018-05-08T05:50:20.559Z,33.54
2018-05-08T05:52:54.239Z,33.62
2018-05-08T05:55:26.816Z,33.73
2018-05-08T05:58:00.871Z,33.82
2018-05-08T06:00:33.656Z,33.94
2018-05-08T06:03:07.004Z,34.05
2018-05-08T06:05:42.278Z,34.19
2018-05-08T06:08:15.447Z,34.22
2018-05-08T06:10:48.488Z,34.03
2018-05-08T06:13:21.759Z,34.06
2018-05-08T06:15:55.381Z,34.23
2018-05-08T06:18:27.856Z,34.14
2018-05-08T06:21:01.066Z,33.95
2018-05-08T06:23:33.366Z,34.12
2018-05-08T06:26:04.770Z,34.07
2018-05-08T06:28:38.596Z,34.12
2018-05-08T06:31:11.379Z,34.25
2018-05-08T06:33:44.622Z,34.36
2018-05-08T06:36:18.306Z,34.64
2018-05-08T06:38:49.945Z,34.93
2018-05-08T06:41:22.268Z,35.17
2018-05-08T06:43:55.527Z,35.27
2018-05-08T06:46:26.945Z,35.46
2018-05-08T06:49:00.232Z,35.71
2018-05-08T06:51:32.236Z,36.06
2018-05-08T06:54:06.175Z,36.19
2018-05-08T06:56:41.147Z,36.47
2018-05-08T06:59:14.467Z,36.40
2018-05-08T07:01:48.226Z,36.30
2018-05-08T07:04:21.615Z,36.26
2018-05-08T07:06:54.867Z,36.39
2018-05-08T07:09:28.722Z,36.59
2018-05-08T07:12:02.413Z,36.55
2018-05-08T07:14:35.709Z,36.44
2018-05-08T07:17:08.443Z,36.38
2018-05-08T07:19:41.828Z,36.32
2018-05-08T07:22:15.282Z,36.08
2018-05-08T07:24:46.782Z,36.08
2018-05-08T07:27:19.155Z,36.13
2018-05-08T07:29:50.774Z,36.14
2018-05-08T07:32:24.515Z,36.24
2018-05-08T07:34:57.515Z,36.47
2018-05-08T07:37:38.601Z,36.58
2018-05-08T07:40:13.555Z,36.87
2018-05-08T07:42:46.430Z,37.00
2018-05-08T07:45:19.871Z,37.17
2018-05-08T07:47:54.462Z,37.28
2018-05-08T07:50:27.700Z,37.51
2018-05-08T07:53:00.143Z,37.75
2018-05-08T07:55:33.265Z,37.75
2018-05-08T07:58:07.750Z,37.73
2018-05-08T08:00:41.713Z,37.60
2018-05-08T08:03:14.463Z,37.49
2018-05-08T08:05:48.259Z,37.61
2018-05-08T08:08:21.533Z,37.72
2018-05-08T08:10:54.807Z,38.02
2018-05-08T08:13:28.394Z,38.30
2018-05-08T08:15:59.763Z,38.47
2018-05-08T08:18:32.145Z,38.20
2018-05-08T08:21:06.393Z,38.21
2018-05-08T08:23:40.418Z,38.29
2018-05-08T08:26:13.410Z,38.02
2018-05-08T08:28:46.783Z,38.22
2018-05-08T08:31:19.426Z,38.06
2018-05-08T08:33:53.493Z,37.91
2018-05-08T08:36:25.794Z,37.63
2018-05-08T08:38:59.990Z,37.59
2018-05-08T08:41:32.460Z,37.69
2018-05-08T08:44:07.705Z,37.90
2018-05-08T08:46:41.363Z,37.91
2018-05-08T08:49:13.011Z,37.84
2018-05-08T08:51:44.407Z,37.75
2018-05-08T08:54:16.782Z,37.80
2018-05-08T08:56:48.350Z,37.54
2018-05-08T08:59:22.143Z,37.55
2018-05-08T09:02:03.685Z,37.67
2018-05-08T09:04:35.626Z,37.81
2018-05-08T09:07:08.027Z,37.86
2018-05-08T09:09:40.367Z,37.93
2018-05-08T09:12:12.813Z,37.89
2018-05-08T09:14:47.136Z,38.08
2018-05-08T09:17:20.867Z,38.33
2018-05-08T09:19:54.065Z,38.21
2018-05-08T09:22:26.414Z,38.22
2018-05-08T09:25:01.187Z,38.44
2018-05-08T09:27:34.224Z,38.71
2018-05-08T09:30:10.226Z,38.47
2018-05-08T09:32:42.854Z,38.65
2018-05-08T09:35:18.414Z,38.56
2018-05-08T09:37:51.915Z,38.50
2018-05-08T09:40:28.385Z,38.85
2018-05-08T09:43:01.484Z,39.01
2018-05-08T09:45:32.934Z,39.00
2018-05-08T09:48:06.971Z,39.03
2018-05-08T09:50:41.340Z,39.13
2018-05-08T09:55:42.808Z,39.00
2018-05-08T09:58:15.079Z,39.07
2018-05-08T10:00:48.644Z,39.20
2018-05-08T10:04:19.639Z,39.22
2018-05-08T10:07:04.402Z,39.15
2018-05-08T10:09:39.830Z,39.30
2018-05-08T10:12:12.210Z,39.25
2018-05-08T10:14:44.652Z,39.19
2018-05-08T10:17:18.636Z,39.16
2018-05-08T10:19:50.926Z,39.30
2018-05-08T10:22:23.290Z,39.36
2018-05-08T10:24:55.621Z,39.49
2018-05-08T10:27:28.167Z,39.31
2018-05-08T10:30:04.657Z,39.26
2018-05-08T10:32:36.739Z,39.31
2018-05-08T10:35:11.531Z,39.65
2018-05-08T10:37:43.570Z,39.85
2018-05-08T10:40:15.916Z,39.85
2018-05-08T10:42:49.773Z,40.16
2018-05-08T10:45:25.479Z,40.68
2018-05-08T10:47:57.085Z,40.85
2018-05-08T10:50:30.335Z,40.72
2018-05-08T10:53:04.520Z,40.64
2018-05-08T10:55:36.417Z,40.58
2018-05-08T10:58:12.590Z,40.34
2018-05-08T11:00:47.267Z,40.36
2018-05-08T11:03:21.071Z,40.36
2018-05-08T11:05:54.313Z,40.21
2018-05-08T11:08:28.231Z,40.25
2018-05-08T11:11:01.778Z,40.41
2018-05-08T11:13:35.060Z,40.75
2018-05-08T11:16:07.331Z,40.96
2018-05-08T11:18:38.997Z,40.90
2018-05-08T11:21:12.625Z,40.89
2018-05-08T11:23:46.641Z,41.04
2018-05-08T11:26:20.308Z,41.12
2018-05-08T11:28:52.994Z,41.15
2018-05-08T11:31:27.042Z,41.18
2018-05-08T11:34:00.336Z,41.25
2018-05-08T11:36:33.943Z,41.48
2018-05-08T11:39:05.978Z,41.65
2018-05-08T11:41:39.392Z,41.88
2018-05-08T11:44:12.696Z,42.20
2018-05-08T11:46:45.856Z,42.53
2018-05-08T11:49:20.547Z,42.76
2018-05-08T11:51:53.732Z,42.58
2018-05-08T11:54:27.832Z,42.52
2018-05-08T11:57:01.146Z,42.34
2018-05-08T11:59:34.502Z,42.32
2018-05-08T12:02:08.019Z,42.61
2018-05-08T12:04:41.222Z,42.77
2018-05-08T12:07:14.428Z,42.67
2018-05-08T12:09:47.926Z,42.60
2018-05-08T12:12:21.166Z,42.55
2018-05-08T12:14:54.689Z,42.49
2018-05-08T12:17:28.716Z,42.34
2018-05-08T12:20:02.375Z,42.31
2018-05-08T12:22:36.494Z,42.42
2018-05-08T12:25:11.879Z,42.60
2018-05-08T12:27:47.232Z,42.47
2018-05-08T12:30:21.793Z,42.65
2018-05-08T12:33:01.840Z,42.37
2018-05-08T12:35:35.010Z,42.21
2018-05-08T12:38:09.741Z,42.31
2018-05-08T12:40:42.910Z,41.98
2018-05-08T12:43:16.405Z,41.92
2018-05-08T12:45:49.652Z,41.81
2018-05-08T12:48:22.978Z,41.86
2018-05-08T12:50:57.015Z,41.74
2018-05-08T12:53:30.285Z,41.97
2018-05-08T12:56:03.788Z,42.06
2018-05-08T12:58:37.285Z,42.39
2018-05-08T13:01:12.069Z,42.72
2018-05-08T13:03:45.292Z,42.67
2018-05-08T13:06:18.762Z,42.70
2018-05-08T13:08:51.945Z,42.71
2018-05-08T13:11:25.377Z,42.63
2018-05-08T13:13:59.708Z,42.80
2018-05-08T13:16:32.993Z,43.01
2018-05-08T13:19:06.878Z,43.07
2018-05-08T13:21:40.211Z,43.37
2018-05-08T13:24:13.811Z,43.26
2018-05-08T13:26:48.074Z,43.49
2018-05-08T13:29:25.190Z,43.46
2018-05-08T13:31:58.606Z,43.72
2018-05-08T13:34:32.919Z,44.03
2018-05-08T13:37:06.351Z,43.76
2018-05-08T13:39:39.863Z,43.84
2018-05-08T13:42:13.082Z,43.93
2018-05-08T13:44:46.284Z,44.20
2018-05-08T13:47:19.529Z,44.03
2018-05-08T13:49:53.099Z,43.98
2018-05-08T13:52:28.351Z,44.33
2018-05-08T13:55:02.926Z,44.62
2018-05-08T13:57:36.647Z,44.93
2018-05-08T14:00:10.167Z,45.17
2018-05-08T14:02:45.233Z,45.31
2018-05-08T14:05:24.564Z,45.40
2018-05-08T14:07:57.880Z,45.52
2018-05-08T14:10:31.331Z,45.69
2018-05-08T14:13:04.916Z,45.89
2018-05-08T14:15:39.547Z,45.99
2018-05-08T14:18:12.934Z,46.02
2018-05-08T14:20:46.112Z,45.97
2018-05-08T14:23:19.346Z,46.14
2018-05-08T14:25:53.916Z,46.26
2018-05-08T14:28:27.823Z,46.49
2018-05-08T14:31:01.096Z,46.51
2018-05-08T14:33:35.048Z,46.63
2018-05-08T14:36:08.620Z,46.64
2018-05-08T14:38:41.889Z,46.69
2018-05-08T14:41:15.211Z,47.15
2018-05-08T14:43:48.372Z,47.02
2018-05-08T14:46:21.917Z,47.02
2018-05-08T14:48:55.099Z,47.19
2018-05-08T14:51:28.357Z,47.30
2018-05-08T14:54:01.625Z,47.29
2018-05-08T14:56:35.119Z,46.95
2018-05-08T14:59:08.454Z,46.27
2018-05-08T15:01:42.342Z,45.82
2018-05-08T15:04:15.694Z,45.57
2018-05-08T15:06:49.287Z,45.40
2018-05-08T15:09:23.567Z,45.53
2018-05-08T15:11:57.328Z,45.75
2018-05-08T15:14:30.845Z,45.80
2018-05-08T15:17:06.571Z,45.87
2018-05-08T15:19:39.933Z,45.78
2018-05-08T15:22:13.688Z,45.71
2018-05-08T15:24:47.396Z,45.60
2018-05-08T15:27:20.411Z,45.62
2018-05-08T15:29:54.359Z,45.65
2018-05-08T15:32:33.417Z,45.78
2018-05-08T15:35:06.810Z,45.80
2018-05-08T15:37:40.060Z,45.83
2018-05-08T15:40:17.543Z,45.79
2018-05-08T15:42:50.776Z,45.90
2018-05-08T15:45:24.133Z,46.15
2018-05-08T15:47:57.311Z,46.15
2018-05-08T15:50:32.144Z,46.16
2018-05-08T15:53:05.352Z,46.28
2018-05-08T15:55:40.402Z,46.54
2018-05-08T15:58:25.203Z,46.90
2018-05-08T16:01:01.896Z,47.21
2018-05-08T16:03:36.157Z,47.45
2018-05-08T16:06:09.805Z,47.85
2018-05-08T16:08:45.210Z,47.75
2018-05-08T16:11:18.448Z,47.53
2018-05-08T16:13:51.692Z,47.48
2018-05-08T16:16:24.911Z,47.24
2018-05-08T16:18:58.179Z,47.19
2018-05-08T16:21:32.076Z,47.09
2018-05-08T16:24:05.385Z,46.80
2018-05-08T16:26:38.619Z,46.25
2018-05-08T16:29:12.084Z,46.10
2018-05-08T16:31:45.720Z,46.26
2018-05-08T16:34:19.432Z,46.49
2018-05-08T16:36:52.675Z,46.63
2018-05-08T16:39:26.440Z,46.52
2018-05-08T16:41:59.639Z,46.22
2018-05-08T16:44:33.107Z,45.88
2018-05-08T16:47:06.278Z,45.77
2018-05-08T16:49:39.967Z,45.83
2018-05-08T16:52:13.381Z,46.05
2018-05-08T16:54:46.576Z,46.12
2018-05-08T16:57:20.603Z,46.09
2018-05-08T16:59:53.839Z,46.11
2018-05-08T17:02:28.112Z,46.25
2018-05-08T17:05:01.281Z,46.39
2018-05-08T17:07:35.007Z,46.23
2018-05-08T17:10:08.829Z,46.08
2018-05-08T17:12:42.300Z,45.82
2018-05-08T17:15:16.694Z,45.35
2018-05-08T17:17:50.842Z,45.36
2018-05-08T17:20:24.164Z,45.59
2018-05-08T17:22:57.644Z,45.81
2018-05-08T17:25:32.184Z,46.07
2018-05-08T17:28:05.489Z,46.32
2018-05-08T17:30:38.760Z,46.28
2018-05-08T17:33:12.221Z,46.27
2018-05-08T17:35:46.624Z,46.21
2018-05-08T17:38:19.804Z,46.27
2018-05-08T17:40:52.967Z,46.25
2018-05-08T17:43:26.211Z,45.87
2018-05-08T17:45:59.998Z,45.25
2018-05-08T17:48:34.182Z,44.42
2018-05-08T17:51:11.212Z,43.54
2018-05-08T17:53:45.273Z,42.67
2018-05-08T17:56:18.940Z,41.99
2018-05-08T17:58:53.397Z,41.50
2018-05-08T18:01:27.902Z,41.07
2018-05-08T18:04:01.466Z,40.67
2018-05-08T18:06:35.784Z,40.33
2018-05-08T18:09:09.172Z,40.07
2018-05-08T18:11:42.891Z,39.86
2018-05-08T18:14:15.539Z,39.68
2018-05-08T18:16:48.842Z,39.44
2018-05-08T18:19:22.103Z,39.31
2018-05-08T18:21:55.616Z,39.19
2018-05-08T18:24:28.796Z,39.06
2018-05-08T18:27:02.814Z,38.92
2018-05-08T18:29:36.107Z,38.77
2018-05-08T18:32:11.810Z,38.67
2018-05-08T18:34:45.027Z,38.57
2018-05-08T18:37:19.088Z,38.44
2018-05-08T18:39:54.007Z,38.27
2018-05-08T18:42:29.322Z,38.10
2018-05-08T18:45:05.783Z,37.93
2018-05-08T18:47:40.290Z,37.77
2018-05-08T18:50:11.778Z,37.58
2018-05-08T18:52:45.858Z,37.40
2018-05-08T18:55:19.992Z,37.20
2018-05-08T18:57:51.407Z,36.96
2018-05-08T19:00:22.821Z,36.58
2018-05-08T19:02:54.407Z,36.38
2018-05-08T19:05:26.820Z,36.26
2018-05-08T19:07:59.255Z,36.12
2018-05-08T19:10:30.597Z,35.80
2018-05-08T19:13:06.731Z,35.58
2018-05-08T19:15:42.187Z,35.46
2018-05-08T19:18:13.699Z,35.44
2018-05-08T19:20:45.105Z,35.41
2018-05-08T19:23:16.553Z,35.23
2018-05-08T19:25:48.220Z,35.06
2018-05-08T19:28:24.639Z,34.96
2018-05-08T19:30:56.944Z,34.87
2018-05-08T19:33:28.694Z,34.67
2018-05-08T19:38:07.634Z,34.58
2018-05-08T19:40:39.209Z,34.28
2018-05-08T19:43:11.579Z,34.18
2018-05-08T19:45:43.059Z,34.07
2018-05-08T19:48:15.315Z,33.97
2018-05-08T19:50:49.488Z,33.92
2018-05-08T19:53:20.920Z,33.77
2018-05-08T19:55:52.450Z,33.69
2018-05-08T19:58:24.191Z,33.65
2018-05-08T20:00:56.252Z,33.56
2018-05-08T20:03:27.425Z,33.46
2018-05-08T20:05:58.766Z,33.38
2018-05-08T20:08:31.140Z,33.32
2018-05-08T20:11:03.936Z,33.32
2018-05-08T20:13:36.298Z,33.27
2018-05-08T20:16:08.730Z,33.20
2018-05-08T20:18:41.724Z,33.28
2018-05-08T20:21:13.985Z,33.40
2018-05-08T20:23:46.327Z,33.38
2018-05-08T20:26:19.434Z,33.40
2018-05-08T20:28:53.161Z,33.38
2018-05-08T20:31:24.623Z,33.25
2018-05-08T20:33:55.998Z,33.25
2018-05-08T20:36:30.499Z,33.16
2018-05-08T20:39:02.927Z,33.12
2018-05-08T20:41:35.274Z,33.23
2018-05-08T20:44:07.983Z,33.18
2018-05-08T20:46:39.358Z,33.07
2018-05-08T20:49:12.448Z,33.01
2018-05-08T20:51:44.075Z,33.05
2018-05-08T20:54:16.291Z,33.02
2018-05-08T20:56:47.678Z,33.04
2018-05-08T20:59:20.032Z,33.11
2018-05-08T21:01:52.443Z,33.08
2018-05-08T21:04:23.819Z,33.04
2018-05-08T21:06:56.522Z,33.03
2018-05-08T21:09:29.423Z,32.94
2018-05-08T21:12:00.875Z,32.88
2018-05-08T21:14:33.491Z,32.86
2018-05-08T21:17:06.378Z,32.91
2018-05-08T21:19:38.411Z,32.91
2018-05-08T21:22:11.169Z,32.92
2018-05-08T21:24:43.547Z,33.00
2018-05-08T21:27:15.756Z,33.09
2018-05-08T21:29:52.086Z,33.09
2018-05-08T21:32:23.848Z,33.10
2018-05-08T21:34:56.204Z,33.19
2018-05-08T21:37:28.549Z,33.13
2018-05-08T21:40:00.042Z,33.23
2018-05-08T21:42:32.500Z,33.32
2018-05-08T21:45:08.286Z,33.37
2018-05-08T21:47:39.931Z,33.36
2018-05-08T21:50:12.239Z,33.37
2018-05-08T21:52:45.288Z,33.35
2018-05-08T21:55:17.582Z,33.34
2018-05-08T21:57:49.935Z,33.32
2018-05-08T22:00:23.880Z,33.33
2018-05-08T22:02:58.044Z,33.35
2018-05-08T22:05:30.616Z,33.33
2018-05-08T22:08:03.109Z,33.21
2018-05-08T22:10:37.188Z,33.11
2018-05-08T22:13:12.939Z,33.15
2018-05-08T22:15:44.341Z,33.06
2018-05-08T22:18:16.701Z,32.93
2018-05-08T22:20:48.218Z,32.75
2018-05-08T22:23:20.543Z,32.66
2018-05-08T22:25:52.464Z,32.66
2018-05-08T22:28:23.907Z,32.49
2018-05-08T22:30:55.747Z,32.39
2018-05-08T22:33:28.109Z,32.26
2018-05-08T22:36:00.966Z,32.14
2018-05-08T22:38:32.467Z,32.05
2018-05-08T22:41:03.871Z,31.93
2018-05-08T22:43:35.959Z,31.88
2018-05-08T22:46:07.335Z,31.91
2018-05-08T22:48:38.793Z,31.94
2018-05-08T22:51:11.145Z,32.06
2018-05-08T22:53:43.124Z,32.10
2018-05-08T22:56:15.072Z,32.07
2018-05-08T22:58:46.435Z,31.96
2018-05-08T23:01:19.474Z,32.02
2018-05-08T23:03:51.751Z,32.06
2018-05-08T23:06:23.611Z,32.02
2018-05-08T23:08:57.345Z,32.00
2018-05-08T23:11:29.050Z,31.94
2018-05-08T23:14:01.321Z,31.95
2018-05-08T23:16:34.246Z,31.96
2018-05-08T23:19:06.231Z,31.89
2018-05-08T23:21:38.314Z,31.93
2018-05-08T23:24:10.144Z,31.94
2018-05-08T23:26:41.973Z,31.89
2018-05-08T23:29:13.722Z,31.82
2018-05-08T23:31:45.139Z,31.80
2018-05-08T23:34:16.998Z,31.79
2018-05-08T23:36:49.057Z,31.74
2018-05-08T23:39:20.657Z,31.65
2018-05-08T23:41:52.325Z,31.63
2018-05-08T23:44:23.672Z,31.55
2018-05-08T23:46:55.049Z,31.57
2018-05-08T23:49:26.425Z,31.51
2018-05-08T23:51:58.298Z,31.53
2018-05-08T23:56:53.755Z,31.49
2018-05-08T23:59:25.408Z,31.48
